sensor_id;sensor_type;location;lat;lon;timestamp;pressure;altitude;pressure_sealevel;temperature;humidity
40872;BME280;26591;43.264;26.940;2023-07-13T00:00:46;98992.44;;;24.89;62.62
40872;BME280;26591;43.264;26.940;2023-07-13T00:03:12;98980.53;;;24.90;61.78
40872;BME280;26591;43.264;26.940;2023-07-13T00:05:39;98988.75;;;25.05;62.33
40872;BME280;26591;43.264;26.940;2023-07-13T00:08:04;98979.50;;;25.01;61.58
40872;BME280;26591;43.264;26.940;2023-07-13T00:10:30;98987.44;;;25.13;61.47
40872;BME280;26591;43.264;26.940;2023-07-13T00:12:57;98986.41;;;24.76;62.34
40872;BME280;26591;43.264;26.940;2023-07-13T00:15:25;98982.63;;;24.77;62.96
40872;BME280;26591;43.264;26.940;2023-07-13T00:17:52;98981.56;;;24.78;62.46
40872;BME280;26591;43.264;26.940;2023-07-13T00:20:19;98969.66;;;24.79;62.74
40872;BME280;26591;43.264;26.940;2023-07-13T00:22:46;98984.88;;;24.91;62.90
40872;BME280;26591;43.264;26.940;2023-07-13T00:25:12;98971.94;;;25.03;61.42
40872;BME280;26591;43.264;26.940;2023-07-13T00:27:38;98974.69;;;24.65;63.49
40872;BME280;26591;43.264;26.940;2023-07-13T00:30:04;98974.63;;;24.55;62.96
40872;BME280;26591;43.264;26.940;2023-07-13T00:32:30;98979.50;;;24.58;63.32
40872;BME280;26591;43.264;26.940;2023-07-13T00:34:58;98967.63;;;24.59;63.81
40872;BME280;26591;43.264;26.940;2023-07-13T00:37:25;98972.03;;;24.33;64.14
40872;BME280;26591;43.264;26.940;2023-07-13T00:39:51;98967.81;;;24.47;64.31
40872;BME280;26591;43.264;26.940;2023-07-13T00:42:16;98964.81;;;24.49;63.73
40872;BME280;26591;43.264;26.940;2023-07-13T00:45:00;98963.13;;;24.70;63.15
40872;BME280;26591;43.264;26.940;2023-07-13T00:47:26;98953.16;;;24.81;62.35
40872;BME280;26591;43.264;26.940;2023-07-13T00:49:51;98952.38;;;24.86;62.62
40872;BME280;26591;43.264;26.940;2023-07-13T00:52:17;98954.31;;;24.52;63.62
40872;BME280;26591;43.264;26.940;2023-07-13T00:54:45;98943.06;;;24.28;64.34
40872;BME280;26591;43.264;26.940;2023-07-13T00:57:15;98945.59;;;24.45;63.91
40872;BME280;26591;43.264;26.940;2023-07-13T00:59:42;98944.16;;;24.00;65.57
40872;BME280;26591;43.264;26.940;2023-07-13T01:02:08;98933.81;;;24.19;64.50
40872;BME280;26591;43.264;26.940;2023-07-13T01:04:35;98945.84;;;24.06;64.93
40872;BME280;26591;43.264;26.940;2023-07-13T01:07:00;98941.06;;;23.86;65.68
40872;BME280;26591;43.264;26.940;2023-07-13T01:09:26;98934.78;;;23.80;66.33
40872;BME280;26591;43.264;26.940;2023-07-13T01:11:52;98927.66;;;23.96;65.71
40872;BME280;26591;43.264;26.940;2023-07-13T01:14:18;98927.28;;;23.87;66.08
40872;BME280;26591;43.264;26.940;2023-07-13T01:16:46;98931.09;;;23.64;66.79
40872;BME280;26591;43.264;26.940;2023-07-13T01:19:33;98933.88;;;23.69;66.70
40872;BME280;26591;43.264;26.940;2023-07-13T01:22:12;98933.38;;;23.72;66.29
40872;BME280;26591;43.264;26.940;2023-07-13T01:24:40;98932.03;;;23.75;67.16
40872;BME280;26591;43.264;26.940;2023-07-13T01:27:07;98929.75;;;23.89;66.49
40872;BME280;26591;43.264;26.940;2023-07-13T01:29:35;98930.53;;;23.89;65.88
40872;BME280;26591;43.264;26.940;2023-07-13T01:32:12;98933.09;;;23.74;66.78
40872;BME280;26591;43.264;26.940;2023-07-13T01:34:39;98926.78;;;23.63;66.71
40872;BME280;26591;43.264;26.940;2023-07-13T01:37:11;98926.19;;;23.56;66.77
40872;BME280;26591;43.264;26.940;2023-07-13T01:39:37;98925.81;;;23.74;66.61
40872;BME280;26591;43.264;26.940;2023-07-13T01:42:03;98924.03;;;23.58;66.80
40872;BME280;26591;43.264;26.940;2023-07-13T01:44:29;98922.22;;;23.64;67.22
40872;BME280;26591;43.264;26.940;2023-07-13T01:46:54;98924.22;;;23.78;67.01
40872;BME280;26591;43.264;26.940;2023-07-13T01:49:20;98923.88;;;23.97;65.72
40872;BME280;26591;43.264;26.940;2023-07-13T01:51:46;98923.16;;;24.07;65.26
40872;BME280;26591;43.264;26.940;2023-07-13T01:54:11;98928.69;;;24.22;65.40
40872;BME280;26591;43.264;26.940;2023-07-13T01:56:37;98928.19;;;24.26;65.15
40872;BME280;26591;43.264;26.940;2023-07-13T01:59:02;98929.59;;;24.38;64.31
40872;BME280;26591;43.264;26.940;2023-07-13T02:01:28;98925.50;;;24.31;64.81
40872;BME280;26591;43.264;26.940;2023-07-13T02:03:53;98922.22;;;24.29;64.36
40872;BME280;26591;43.264;26.940;2023-07-13T02:06:19;98922.09;;;24.08;65.55
40872;BME280;26591;43.264;26.940;2023-07-13T02:08:44;98920.47;;;24.07;65.78
40872;BME280;26591;43.264;26.940;2023-07-13T02:11:10;98928.91;;;24.16;64.87
40872;BME280;26591;43.264;26.940;2023-07-13T02:13:36;98926.06;;;24.33;65.26
40872;BME280;26591;43.264;26.940;2023-07-13T02:16:02;98926.78;;;24.23;65.39
40872;BME280;26591;43.264;26.940;2023-07-13T02:18:27;98924.88;;;23.91;66.59
40872;BME280;26591;43.264;26.940;2023-07-13T02:20:53;98922.31;;;24.06;65.45
40872;BME280;26591;43.264;26.940;2023-07-13T02:23:19;98923.28;;;23.95;66.49
40872;BME280;26591;43.264;26.940;2023-07-13T02:25:45;98918.22;;;23.99;66.46
40872;BME280;26591;43.264;26.940;2023-07-13T02:28:10;98917.50;;;23.81;67.88
40872;BME280;26591;43.264;26.940;2023-07-13T02:30:36;98925.84;;;23.80;67.90
40872;BME280;26591;43.264;26.940;2023-07-13T02:33:02;98926.25;;;23.93;67.59
40872;BME280;26591;43.264;26.940;2023-07-13T02:35:28;98930.44;;;24.06;67.26
40872;BME280;26591;43.264;26.940;2023-07-13T02:37:53;98939.03;;;23.98;67.16
40872;BME280;26591;43.264;26.940;2023-07-13T02:40:19;98932.25;;;24.28;66.69
40872;BME280;26591;43.264;26.940;2023-07-13T02:42:44;98938.00;;;24.42;65.73
40872;BME280;26591;43.264;26.940;2023-07-13T02:45:10;98935.56;;;24.41;65.67
40872;BME280;26591;43.264;26.940;2023-07-13T02:47:36;98932.97;;;24.56;65.80
40872;BME280;26591;43.264;26.940;2023-07-13T02:50:02;98934.72;;;24.73;65.29
40872;BME280;26591;43.264;26.940;2023-07-13T02:52:28;98936.13;;;24.86;64.25
40872;BME280;26591;43.264;26.940;2023-07-13T02:54:53;98932.06;;;24.83;65.27
40872;BME280;26591;43.264;26.940;2023-07-13T02:57:19;98935.88;;;24.87;64.26
40872;BME280;26591;43.264;26.940;2023-07-13T02:59:44;98939.63;;;24.81;65.92
40872;BME280;26591;43.264;26.940;2023-07-13T03:02:10;98935.13;;;25.02;64.62
40872;BME280;26591;43.264;26.940;2023-07-13T03:04:36;98937.31;;;25.05;65.46
40872;BME280;26591;43.264;26.940;2023-07-13T03:07:03;98944.44;;;25.27;64.95
40872;BME280;26591;43.264;26.940;2023-07-13T03:09:28;98941.81;;;25.42;65.09
40872;BME280;26591;43.264;26.940;2023-07-13T03:11:54;98942.94;;;25.62;64.34
40872;BME280;26591;43.264;26.940;2023-07-13T03:14:23;98944.06;;;25.92;63.76
40872;BME280;26591;43.264;26.940;2023-07-13T03:16:50;98943.00;;;26.19;63.31
40872;BME280;26591;43.264;26.940;2023-07-13T03:19:17;98942.44;;;26.32;62.29
40872;BME280;26591;43.264;26.940;2023-07-13T03:21:43;98941.59;;;26.63;61.88
40872;BME280;26591;43.264;26.940;2023-07-13T03:24:08;98946.72;;;26.80;61.48
40872;BME280;26591;43.264;26.940;2023-07-13T03:26:34;98945.06;;;27.00;61.22
40872;BME280;26591;43.264;26.940;2023-07-13T03:28:59;98940.66;;;27.14;60.96
40872;BME280;26591;43.264;26.940;2023-07-13T03:31:28;98944.56;;;27.53;60.16
40872;BME280;26591;43.264;26.940;2023-07-13T03:33:56;98945.91;;;27.95;58.67
40872;BME280;26591;43.264;26.940;2023-07-13T03:36:27;98941.63;;;28.24;57.53
40872;BME280;26591;43.264;26.940;2023-07-13T03:38:57;98949.09;;;28.67;56.48
40872;BME280;26591;43.264;26.940;2023-07-13T03:41:23;98953.09;;;29.04;55.22
40872;BME280;26591;43.264;26.940;2023-07-13T03:43:50;98949.00;;;29.26;53.91
40872;BME280;26591;43.264;26.940;2023-07-13T03:46:17;98949.81;;;29.26;53.52
40872;BME280;26591;43.264;26.940;2023-07-13T03:48:45;98955.91;;;29.61;52.67
40872;BME280;26591;43.264;26.940;2023-07-13T03:51:12;98955.59;;;29.82;52.71
40872;BME280;26591;43.264;26.940;2023-07-13T03:53:42;98958.47;;;29.91;51.76
40872;BME280;26591;43.264;26.940;2023-07-13T03:56:09;98964.19;;;30.27;51.49
40872;BME280;26591;43.264;26.940;2023-07-13T03:58:37;98962.69;;;30.35;50.57
40872;BME280;26591;43.264;26.940;2023-07-13T04:01:05;98956.59;;;30.85;49.28
40872;BME280;26591;43.264;26.940;2023-07-13T04:03:32;98964.69;;;31.04;49.47
40872;BME280;26591;43.264;26.940;2023-07-13T04:06:00;98956.38;;;31.38;48.21
40872;BME280;26591;43.264;26.940;2023-07-13T04:08:28;98959.41;;;31.87;47.51
40872;BME280;26591;43.264;26.940;2023-07-13T04:10:55;98959.41;;;31.87;47.74
40872;BME280;26591;43.264;26.940;2023-07-13T04:13:21;98963.31;;;32.17;46.69
40872;BME280;26591;43.264;26.940;2023-07-13T04:15:47;98959.97;;;31.98;47.42
40872;BME280;26591;43.264;26.940;2023-07-13T04:18:12;98966.72;;;32.23;47.18
40872;BME280;26591;43.264;26.940;2023-07-13T04:20:38;98966.06;;;32.71;45.91
40872;BME280;26591;43.264;26.940;2023-07-13T04:23:03;98965.78;;;32.82;46.35
40872;BME280;26591;43.264;26.940;2023-07-13T04:25:29;98963.81;;;33.23;44.29
40872;BME280;26591;43.264;26.940;2023-07-13T04:27:54;98965.00;;;33.39;44.53
40872;BME280;26591;43.264;26.940;2023-07-13T04:30:20;98967.91;;;33.43;44.17
40872;BME280;26591;43.264;26.940;2023-07-13T04:32:46;98969.22;;;33.37;44.22
40872;BME280;26591;43.264;26.940;2023-07-13T04:35:12;98972.44;;;33.47;43.77
40872;BME280;26591;43.264;26.940;2023-07-13T04:37:39;98969.06;;;33.59;43.68
40872;BME280;26591;43.264;26.940;2023-07-13T04:40:06;98971.66;;;34.00;43.09
40872;BME280;26591;43.264;26.940;2023-07-13T04:42:31;98966.28;;;34.30;42.24
40872;BME280;26591;43.264;26.940;2023-07-13T04:44:57;98971.28;;;34.45;41.77
40872;BME280;26591;43.264;26.940;2023-07-13T04:47:23;98968.59;;;34.66;41.46
40872;BME280;26591;43.264;26.940;2023-07-13T04:49:48;98975.88;;;34.71;40.78
40872;BME280;26591;43.264;26.940;2023-07-13T04:52:14;98982.75;;;34.86;40.56
40872;BME280;26591;43.264;26.940;2023-07-13T04:54:44;98979.47;;;34.63;41.35
40872;BME280;26591;43.264;26.940;2023-07-13T04:57:10;98980.72;;;34.74;41.76
40872;BME280;26591;43.264;26.940;2023-07-13T04:59:36;98976.97;;;35.18;40.62
40872;BME280;26591;43.264;26.940;2023-07-13T05:02:01;98981.28;;;35.27;40.18
40872;BME280;26591;43.264;26.940;2023-07-13T05:04:32;98979.91;;;35.12;40.50
40872;BME280;26591;43.264;26.940;2023-07-13T05:06:59;98979.97;;;35.34;40.79
40872;BME280;26591;43.264;26.940;2023-07-13T05:09:25;98985.25;;;35.39;40.03
40872;BME280;26591;43.264;26.940;2023-07-13T05:11:52;98987.50;;;35.67;39.58
40872;BME280;26591;43.264;26.940;2023-07-13T05:14:19;98988.91;;;35.73;39.55
40872;BME280;26591;43.264;26.940;2023-07-13T05:16:44;98988.25;;;35.97;39.65
40872;BME280;26591;43.264;26.940;2023-07-13T05:19:10;98986.41;;;36.23;39.10
40872;BME280;26591;43.264;26.940;2023-07-13T05:21:36;98995.34;;;36.19;38.53
40872;BME280;26591;43.264;26.940;2023-07-13T05:24:01;98990.50;;;36.16;38.48
40872;BME280;26591;43.264;26.940;2023-07-13T05:26:27;98998.38;;;36.05;38.99
40872;BME280;26591;43.264;26.940;2023-07-13T05:28:53;98999.28;;;35.97;39.57
40872;BME280;26591;43.264;26.940;2023-07-13T05:31:18;98995.13;;;36.25;38.90
40872;BME280;26591;43.264;26.940;2023-07-13T05:33:44;98995.81;;;36.22;39.03
40872;BME280;26591;43.264;26.940;2023-07-13T05:36:10;99002.47;;;36.67;38.56
40872;BME280;26591;43.264;26.940;2023-07-13T05:38:35;98993.41;;;36.54;38.45
40872;BME280;26591;43.264;26.940;2023-07-13T05:41:01;98998.25;;;36.02;39.44
40872;BME280;26591;43.264;26.940;2023-07-13T05:43:26;98994.09;;;35.96;39.63
40872;BME280;26591;43.264;26.940;2023-07-13T05:45:54;99002.84;;;36.31;39.28
40872;BME280;26591;43.264;26.940;2023-07-13T05:48:20;99007.28;;;36.24;39.42
40872;BME280;26591;43.264;26.940;2023-07-13T05:50:45;99004.09;;;36.34;39.65
40872;BME280;26591;43.264;26.940;2023-07-13T05:53:11;99005.03;;;36.04;39.75
40872;BME280;26591;43.264;26.940;2023-07-13T05:55:43;99011.00;;;35.64;40.55
40872;BME280;26591;43.264;26.940;2023-07-13T05:58:10;99007.16;;;36.20;40.15
40872;BME280;26591;43.264;26.940;2023-07-13T06:00:36;99011.66;;;36.25;39.89
40872;BME280;26591;43.264;26.940;2023-07-13T06:03:02;99009.91;;;36.20;39.92
40872;BME280;26591;43.264;26.940;2023-07-13T06:05:27;99011.50;;;36.21;40.06
40872;BME280;26591;43.264;26.940;2023-07-13T06:07:54;99013.00;;;35.55;41.20
40872;BME280;26591;43.264;26.940;2023-07-13T06:10:20;99015.94;;;35.50;41.10
40872;BME280;26591;43.264;26.940;2023-07-13T06:12:46;99007.03;;;36.16;40.53
40872;BME280;26591;43.264;26.940;2023-07-13T06:15:12;99006.50;;;36.35;40.25
40872;BME280;26591;43.264;26.940;2023-07-13T06:17:37;98998.78;;;36.62;39.66
40872;BME280;26591;43.264;26.940;2023-07-13T06:20:03;99013.28;;;36.04;40.26
40872;BME280;26591;43.264;26.940;2023-07-13T06:22:28;99010.88;;;35.82;41.35
40872;BME280;26591;43.264;26.940;2023-07-13T06:24:54;99005.41;;;36.15;40.58
40872;BME280;26591;43.264;26.940;2023-07-13T06:27:20;99010.84;;;36.58;40.33
40872;BME280;26591;43.264;26.940;2023-07-13T06:29:46;99005.16;;;36.42;40.29
40872;BME280;26591;43.264;26.940;2023-07-13T06:32:12;99006.56;;;35.93;41.26
40872;BME280;26591;43.264;26.940;2023-07-13T06:34:37;99000.84;;;36.53;40.37
40872;BME280;26591;43.264;26.940;2023-07-13T06:37:03;99003.63;;;36.78;40.13
40872;BME280;26591;43.264;26.940;2023-07-13T06:39:29;99000.22;;;36.93;40.23
40872;BME280;26591;43.264;26.940;2023-07-13T06:41:55;99005.75;;;37.06;39.11
40872;BME280;26591;43.264;26.940;2023-07-13T06:44:22;99005.22;;;36.67;40.43
40872;BME280;26591;43.264;26.940;2023-07-13T06:46:49;99006.44;;;35.89;41.66
40872;BME280;26591;43.264;26.940;2023-07-13T06:49:17;98998.56;;;36.68;40.59
40872;BME280;26591;43.264;26.940;2023-07-13T06:51:42;98995.59;;;36.73;40.80
40872;BME280;26591;43.264;26.940;2023-07-13T06:54:08;99001.78;;;36.70;41.11
40872;BME280;26591;43.264;26.940;2023-07-13T06:56:33;99005.81;;;36.72;40.64
40872;BME280;26591;43.264;26.940;2023-07-13T06:58:59;98997.31;;;36.77;40.94
40872;BME280;26591;43.264;26.940;2023-07-13T07:01:25;99004.53;;;35.81;42.13
40872;BME280;26591;43.264;26.940;2023-07-13T07:03:51;99006.00;;;36.55;41.32
40872;BME280;26591;43.264;26.940;2023-07-13T07:06:19;99007.50;;;36.64;41.48
40872;BME280;26591;43.264;26.940;2023-07-13T07:08:45;99003.78;;;37.19;40.65
40872;BME280;26591;43.264;26.940;2023-07-13T07:11:18;99005.50;;;37.23;40.55
40872;BME280;26591;43.264;26.940;2023-07-13T07:13:44;99006.41;;;37.52;40.12
40872;BME280;26591;43.264;26.940;2023-07-13T07:16:10;99005.50;;;37.23;40.56
40872;BME280;26591;43.264;26.940;2023-07-13T07:18:36;99009.41;;;36.98;41.17
40872;BME280;26591;43.264;26.940;2023-07-13T07:21:02;99009.88;;;37.12;40.90
40872;BME280;26591;43.264;26.940;2023-07-13T07:23:28;98999.63;;;37.00;41.21
40872;BME280;26591;43.264;26.940;2023-07-13T07:25:53;99004.56;;;36.82;42.33
40872;BME280;26591;43.264;26.940;2023-07-13T07:28:20;99009.97;;;37.16;41.08
40872;BME280;26591;43.264;26.940;2023-07-13T07:30:46;98998.13;;;36.90;41.69
40872;BME280;26591;43.264;26.940;2023-07-13T07:33:12;99001.41;;;36.59;42.13
40872;BME280;26591;43.264;26.940;2023-07-13T07:35:38;98994.56;;;36.90;41.75
40872;BME280;26591;43.264;26.940;2023-07-13T07:38:04;98999.50;;;36.72;42.22
40872;BME280;26591;43.264;26.940;2023-07-13T07:40:30;98997.47;;;36.93;41.94
40872;BME280;26591;43.264;26.940;2023-07-13T07:42:56;98990.63;;;36.20;42.52
40872;BME280;26591;43.264;26.940;2023-07-13T07:45:22;98994.00;;;35.83;44.73
40872;BME280;26591;43.264;26.940;2023-07-13T07:47:47;98996.72;;;36.26;43.37
40872;BME280;26591;43.264;26.940;2023-07-13T07:50:13;98995.81;;;36.68;42.87
40872;BME280;26591;43.264;26.940;2023-07-13T07:52:39;98988.50;;;37.09;42.19
40872;BME280;26591;43.264;26.940;2023-07-13T07:55:06;98993.53;;;37.44;41.09
40872;BME280;26591;43.264;26.940;2023-07-13T07:57:32;98997.00;;;37.29;41.29
40872;BME280;26591;43.264;26.940;2023-07-13T07:59:58;98991.03;;;37.02;42.02
40872;BME280;26591;43.264;26.940;2023-07-13T08:02:24;98994.16;;;37.13;41.84
40872;BME280;26591;43.264;26.940;2023-07-13T08:04:50;98991.78;;;36.53;42.96
40872;BME280;26591;43.264;26.940;2023-07-13T08:07:16;98994.50;;;36.19;43.61
40872;BME280;26591;43.264;26.940;2023-07-13T08:09:41;98986.53;;;36.26;42.88
40872;BME280;26591;43.264;26.940;2023-07-13T08:12:08;98995.78;;;36.55;42.80
40872;BME280;26591;43.264;26.940;2023-07-13T08:14:33;98990.13;;;36.98;41.94
40872;BME280;26591;43.264;26.940;2023-07-13T08:16:59;98978.25;;;36.26;43.39
40872;BME280;26591;43.264;26.940;2023-07-13T08:19:24;98967.16;;;36.35;43.32
40872;BME280;26591;43.264;26.940;2023-07-13T08:21:50;98977.16;;;36.98;41.82
40872;BME280;26591;43.264;26.940;2023-07-13T08:24:15;98977.19;;;36.52;42.29
40872;BME280;26591;43.264;26.940;2023-07-13T08:26:44;98983.47;;;35.64;43.87
40872;BME280;26591;43.264;26.940;2023-07-13T08:29:11;98982.75;;;35.97;43.49
40872;BME280;26591;43.264;26.940;2023-07-13T08:31:37;98975.44;;;36.01;43.62
40872;BME280;26591;43.264;26.940;2023-07-13T08:34:02;98983.34;;;36.03;43.06
40872;BME280;26591;43.264;26.940;2023-07-13T08:36:29;98975.34;;;36.56;42.05
40872;BME280;26591;43.264;26.940;2023-07-13T08:38:54;98974.91;;;36.79;40.95
40872;BME280;26591;43.264;26.940;2023-07-13T08:41:21;98980.22;;;36.97;41.21
40872;BME280;26591;43.264;26.940;2023-07-13T08:43:49;98981.38;;;36.03;43.11
40872;BME280;26591;43.264;26.940;2023-07-13T08:46:18;98977.13;;;36.40;41.62
40872;BME280;26591;43.264;26.940;2023-07-13T08:48:53;98977.09;;;36.86;40.60
40872;BME280;26591;43.264;26.940;2023-07-13T08:53:56;98972.72;;;36.14;40.31
40872;BME280;26591;43.264;26.940;2023-07-13T08:56:25;98971.69;;;36.77;39.53
40872;BME280;26591;43.264;26.940;2023-07-13T08:58:56;98982.19;;;36.38;39.97
40872;BME280;26591;43.264;26.940;2023-07-13T09:01:30;98974.41;;;36.06;40.12
40872;BME280;26591;43.264;26.940;2023-07-13T09:04:23;98970.34;;;37.08;38.36
40872;BME280;26591;43.264;26.940;2023-07-13T09:12:19;98972.34;;;37.61;36.32
40872;BME280;26591;43.264;26.940;2023-07-13T09:14:54;98976.13;;;37.97;36.68
40872;BME280;26591;43.264;26.940;2023-07-13T09:17:35;98975.34;;;37.96;35.79
40872;BME280;26591;43.264;26.940;2023-07-13T09:20:28;98981.97;;;38.08;36.27
40872;BME280;26591;43.264;26.940;2023-07-13T09:22:56;98983.56;;;38.69;34.70
40872;BME280;26591;43.264;26.940;2023-07-13T09:25:31;98974.94;;;39.03;34.34
40872;BME280;26591;43.264;26.940;2023-07-13T09:30:46;98970.59;;;39.37;28.93
40872;BME280;26591;43.264;26.940;2023-07-13T09:33:16;98963.75;;;39.90;28.89
40872;BME280;26591;43.264;26.940;2023-07-13T09:35:42;98965.69;;;40.09;28.18
40872;BME280;26591;43.264;26.940;2023-07-13T09:38:17;98960.22;;;40.33;28.72
40872;BME280;26591;43.264;26.940;2023-07-13T09:41:28;98952.50;;;40.46;27.66
40872;BME280;26591;43.264;26.940;2023-07-13T09:43:28;98949.63;;;39.95;27.55
40872;BME280;26591;43.264;26.940;2023-07-13T09:45:55;98944.63;;;40.05;28.09
40872;BME280;26591;43.264;26.940;2023-07-13T09:48:21;98940.91;;;40.17;27.84
40872;BME280;26591;43.264;26.940;2023-07-13T09:50:47;98942.47;;;40.37;27.73
40872;BME280;26591;43.264;26.940;2023-07-13T09:53:18;98939.78;;;40.41;28.34
40872;BME280;26591;43.264;26.940;2023-07-13T09:55:46;98923.00;;;40.34;27.94
40872;BME280;26591;43.264;26.940;2023-07-13T09:58:17;98922.91;;;40.26;27.91
40872;BME280;26591;43.264;26.940;2023-07-13T10:00:56;98919.25;;;40.69;27.82
40872;BME280;26591;43.264;26.940;2023-07-13T10:03:25;98918.03;;;40.93;28.15
40872;BME280;26591;43.264;26.940;2023-07-13T10:05:52;98926.66;;;41.15;27.40
40872;BME280;26591;43.264;26.940;2023-07-13T10:08:28;98924.53;;;41.35;27.37
40872;BME280;26591;43.264;26.940;2023-07-13T10:11:01;98919.13;;;40.88;28.23
40872;BME280;26591;43.264;26.940;2023-07-13T10:15:53;98915.19;;;40.63;26.76
40872;BME280;26591;43.264;26.940;2023-07-13T10:18:21;98929.13;;;40.43;27.56
40872;BME280;26591;43.264;26.940;2023-07-13T10:20:49;98920.94;;;40.54;27.24
40872;BME280;26591;43.264;26.940;2023-07-13T10:23:21;98917.00;;;40.55;27.40
40872;BME280;26591;43.264;26.940;2023-07-13T10:25:49;98916.09;;;40.47;27.22
40872;BME280;26591;43.264;26.940;2023-07-13T10:28:32;98902.22;;;40.70;26.59
40872;BME280;26591;43.264;26.940;2023-07-13T10:31:01;98911.22;;;40.64;26.50
40872;BME280;26591;43.264;26.940;2023-07-13T10:33:28;98916.22;;;40.78;26.25
40872;BME280;26591;43.264;26.940;2023-07-13T10:36:18;98911.72;;;40.69;26.50
40872;BME280;26591;43.264;26.940;2023-07-13T10:38:47;98911.81;;;41.03;26.98
40872;BME280;26591;43.264;26.940;2023-07-13T10:41:18;98910.59;;;40.74;27.49
40872;BME280;26591;43.264;26.940;2023-07-13T10:43:47;98915.16;;;40.89;27.77
40872;BME280;26591;43.264;26.940;2023-07-13T10:46:18;98909.53;;;41.09;27.50
40872;BME280;26591;43.264;26.940;2023-07-13T10:48:47;98908.03;;;41.15;27.09
40872;BME280;26591;43.264;26.940;2023-07-13T10:51:17;98917.06;;;41.39;27.59
40872;BME280;26591;43.264;26.940;2023-07-13T10:53:45;98918.25;;;41.69;27.23
40872;BME280;26591;43.264;26.940;2023-07-13T10:58:41;98903.94;;;41.67;27.84
40872;BME280;26591;43.264;26.940;2023-07-13T11:01:17;98910.94;;;41.26;28.07
40872;BME280;26591;43.264;26.940;2023-07-13T11:06:11;98899.84;;;41.26;27.98
40872;BME280;26591;43.264;26.940;2023-07-13T11:08:53;98911.13;;;41.41;28.39
40872;BME280;26591;43.264;26.940;2023-07-13T11:13:57;98906.16;;;40.96;28.92
40872;BME280;26591;43.264;26.940;2023-07-13T11:18:51;98902.16;;;41.21;28.81
40872;BME280;26591;43.264;26.940;2023-07-13T11:21:18;98911.28;;;41.21;28.59
40872;BME280;26591;43.264;26.940;2023-07-13T11:23:52;98912.75;;;41.76;28.00
40872;BME280;26591;43.264;26.940;2023-07-13T11:26:44;98908.75;;;41.73;27.96
40872;BME280;26591;43.264;26.940;2023-07-13T11:29:37;98913.84;;;41.37;28.30
40872;BME280;26591;43.264;26.940;2023-07-13T11:32:30;98905.91;;;41.36;28.38
40872;BME280;26591;43.264;26.940;2023-07-13T11:34:57;98908.78;;;40.85;29.26
40872;BME280;26591;43.264;26.940;2023-07-13T11:37:23;98915.47;;;41.38;28.25
40872;BME280;26591;43.264;26.940;2023-07-13T11:39:51;98912.34;;;41.43;27.68
40872;BME280;26591;43.264;26.940;2023-07-13T11:42:18;98907.88;;;41.66;27.82
40872;BME280;26591;43.264;26.940;2023-07-13T11:44:49;98907.00;;;41.58;28.20
40872;BME280;26591;43.264;26.940;2023-07-13T11:47:21;98906.28;;;41.34;28.22
40872;BME280;26591;43.264;26.940;2023-07-13T11:49:55;98896.69;;;41.28;28.33
40872;BME280;26591;43.264;26.940;2023-07-13T11:52:35;98895.56;;;41.02;28.64
40872;BME280;26591;43.264;26.940;2023-07-13T11:55:04;98890.81;;;41.06;28.02
40872;BME280;26591;43.264;26.940;2023-07-13T11:57:44;98881.56;;;40.95;28.48
40872;BME280;26591;43.264;26.940;2023-07-13T12:00:15;98863.16;;;40.83;28.63
40872;BME280;26591;43.264;26.940;2023-07-13T12:02:47;98865.44;;;41.04;29.11
40872;BME280;26591;43.264;26.940;2023-07-13T12:05:18;98865.63;;;40.61;29.77
40872;BME280;26591;43.264;26.940;2023-07-13T12:07:45;98865.19;;;40.59;29.39
40872;BME280;26591;43.264;26.940;2023-07-13T12:10:19;98859.38;;;40.64;29.65
40872;BME280;26591;43.264;26.940;2023-07-13T12:15:21;98848.59;;;40.89;28.65
40872;BME280;26591;43.264;26.940;2023-07-13T12:17:49;98853.41;;;40.93;28.33
40872;BME280;26591;43.264;26.940;2023-07-13T12:20:25;98847.91;;;41.27;28.32
40872;BME280;26591;43.264;26.940;2023-07-13T12:22:51;98836.31;;;41.17;28.35
40872;BME280;26591;43.264;26.940;2023-07-13T12:25:18;98839.16;;;40.40;28.45
40872;BME280;26591;43.264;26.940;2023-07-13T12:27:51;98833.00;;;40.51;28.90
40872;BME280;26591;43.264;26.940;2023-07-13T12:30:29;98837.06;;;40.61;28.74
40872;BME280;26591;43.264;26.940;2023-07-13T12:32:59;98824.94;;;40.99;27.89
40872;BME280;26591;43.264;26.940;2023-07-13T12:35:26;98834.19;;;41.07;28.34
40872;BME280;26591;43.264;26.940;2023-07-13T12:37:57;98820.25;;;41.03;27.53
40872;BME280;26591;43.264;26.940;2023-07-13T12:40:28;98822.25;;;40.76;28.19
40872;BME280;26591;43.264;26.940;2023-07-13T12:42:58;98821.13;;;40.54;28.08
40872;BME280;26591;43.264;26.940;2023-07-13T12:45:26;98819.38;;;40.65;27.92
40872;BME280;26591;43.264;26.940;2023-07-13T12:47:58;98819.84;;;40.71;27.92
40872;BME280;26591;43.264;26.940;2023-07-13T12:50:37;98826.47;;;40.39;28.59
40872;BME280;26591;43.264;26.940;2023-07-13T12:53:13;98811.91;;;40.46;28.86
40872;BME280;26591;43.264;26.940;2023-07-13T12:55:57;98806.94;;;40.86;28.42
40872;BME280;26591;43.264;26.940;2023-07-13T12:58:38;98814.28;;;40.71;28.39
40872;BME280;26591;43.264;26.940;2023-07-13T13:01:07;98804.81;;;40.72;28.23
40872;BME280;26591;43.264;26.940;2023-07-13T13:03:39;98799.38;;;40.83;27.95
40872;BME280;26591;43.264;26.940;2023-07-13T13:08:49;98802.19;;;40.59;28.45
40872;BME280;26591;43.264;26.940;2023-07-13T13:11:15;98802.78;;;40.69;28.43
40872;BME280;26591;43.264;26.940;2023-07-13T13:13:42;98798.28;;;40.34;28.43
40872;BME280;26591;43.264;26.940;2023-07-13T13:18:45;98790.19;;;40.21;28.77
40872;BME280;26591;43.264;26.940;2023-07-13T13:21:11;98788.38;;;40.09;28.53
40872;BME280;26591;43.264;26.940;2023-07-13T13:23:37;98788.28;;;39.79;28.67
40872;BME280;26591;43.264;26.940;2023-07-13T13:26:03;98774.03;;;40.04;28.22